Sines, Portugal

6:10 AM WEST on October 22, 2014 (GMT +0100)
Beja Air Base | Change Station
CLOSE
Current Station
Airport
Location: Beja,
Elevation: 810 ft
Nearby Weather Stations

Elev 810 ft 38.02 °N, 7.87 °W | Updated 10 minutes ago

Clear
Clear
68 °F
Feels Like 68 °F
N
6
Wind Variable Wind from ESE

Today
High -- | Low -- °F
--% Chance of Precip.
Yesterday
High -- | Low -- °F
Precip. -- in
7:50 AM 6:48 PM
Waning Crescent, 3% visible
Pressure 30.27 in
Visibility -9999.0 miles
Clouds
Dew Point 57 °F
Humidity 68%
Rainfall 0.00 in
Snow Depth Not available.
UV Not available.
Pollen Not available.
Air Quality Not available.
Flu Activity Not available.
METAR LPBJ 220500Z 11005KT CAVOK 20/14 Q1025

More Conditions Fewer Conditions

Pressure 30.27 in
Visibility -9999.0 miles
Clouds
Dew Point 57 °F
Humidity 68%
Rainfall 0.00 in
Snow Depth Not available.
UV Not available.
Pollen Not available.
Air Quality Not available.
Flu Activity Not available.
METAR LPBJ 220500Z 11005KT CAVOK 20/14 Q1025

More Conditions Fewer Conditions

10-Day Weather Forecast

Almanac

Astronomy

Oct. 22, 2014 Rise Set
Actual Time 7:50 AM WEST 6:48 PM WEST
Civil Twilight 7:23 AM WEST 7:15 PM WEST
Nautical Twilight 6:53 AM WEST 7:46 PM WEST
Astronomical Twilight 6:22 AM WEST 8:16 PM WEST
Moon 6:20 AM WEST 6:06 PM WEST
Length of Visible Light 11h 51m
Length of Day
10h 58m
Tomorrow will be 2m 18s shorter.
Waning Crescent, 3% of the Moon is Illuminated
Today
Waning Crescent
Oct 23
New
Oct 30
First Quarter
Nov 6
Full
Nov 14
Last Quarter

Yesterday's Extremes

Country Highs Country Lows

Community

WunderPhotos

Upload Photos

1,763,884 photos uploaded!

Nearby

Snow Depth

Not available.

Earthquake Activity

City Distance Mag. Time & Date
No recent earthquake activity has been reported nearby.
Minimum magnitude displayed is 2.5.

Coastal Water Temperatures

Place Temperature
No Stations Reporting

Nearby Weather Stations